sensor_id;sensor_type;location;lat;lon;timestamp;P1;durP1;ratioP1;P2;durP2;ratioP2
7383;SDS011;3733;47.994;8.820;2023-08-31T00:02:12;7.50;;;4.07;;
7383;SDS011;3733;47.994;8.820;2023-08-31T00:04:38;6.80;;;4.53;;
7383;SDS011;3733;47.994;8.820;2023-08-31T00:07:04;4.17;;;3.70;;
7383;SDS011;3733;47.994;8.820;2023-08-31T00:09:30;3.67;;;3.10;;
7383;SDS011;3733;47.994;8.820;2023-08-31T00:11:55;3.77;;;3.20;;
7383;SDS011;3733;47.994;8.820;2023-08-31T00:14:24;6.10;;;4.20;;
7383;SDS011;3733;47.994;8.820;2023-08-31T00:16:51;3.93;;;3.13;;
7383;SDS011;3733;47.994;8.820;2023-08-31T00:19:17;2.90;;;2.40;;
7383;SDS011;3733;47.994;8.820;2023-08-31T00:21:42;2.50;;;2.30;;
7383;SDS011;3733;47.994;8.820;2023-08-31T00:24:08;4.10;;;2.73;;
7383;SDS011;3733;47.994;8.820;2023-08-31T00:26:35;2.37;;;2.10;;
7383;SDS011;3733;47.994;8.820;2023-08-31T00:29:10;2.97;;;2.07;;
7383;SDS011;3733;47.994;8.820;2023-08-31T00:31:36;3.63;;;2.20;;
7383;SDS011;3733;47.994;8.820;2023-08-31T00:34:02;2.20;;;2.00;;
7383;SDS011;3733;47.994;8.820;2023-08-31T00:36:28;2.33;;;2.10;;
7383;SDS011;3733;47.994;8.820;2023-08-31T00:38:56;2.90;;;2.60;;
7383;SDS011;3733;47.994;8.820;2023-08-31T00:41:22;2.50;;;2.30;;
7383;SDS011;3733;47.994;8.820;2023-08-31T00:43:47;2.93;;;2.20;;
7383;SDS011;3733;47.994;8.820;2023-08-31T00:46:13;2.47;;;2.27;;
7383;SDS011;3733;47.994;8.820;2023-08-31T00:48:40;3.70;;;2.53;;
7383;SDS011;3733;47.994;8.820;2023-08-31T00:51:06;3.93;;;2.40;;
7383;SDS011;3733;47.994;8.820;2023-08-31T00:53:32;2.63;;;2.30;;
7383;SDS011;3733;47.994;8.820;2023-08-31T00:55:58;3.60;;;2.20;;
7383;SDS011;3733;47.994;8.820;2023-08-31T00:58:24;2.63;;;1.80;;
7383;SDS011;3733;47.994;8.820;2023-08-31T01:09:02;3.30;;;2.40;;
7383;SDS011;3733;47.994;8.820;2023-08-31T01:14:16;2.70;;;2.23;;
7383;SDS011;3733;47.994;8.820;2023-08-31T01:16:44;2.73;;;2.37;;
7383;SDS011;3733;47.994;8.820;2023-08-31T01:21:57;4.30;;;2.20;;
7383;SDS011;3733;47.994;8.820;2023-08-31T01:24:28;3.23;;;2.60;;
7383;SDS011;3733;47.994;8.820;2023-08-31T01:26:55;4.20;;;2.40;;
7383;SDS011;3733;47.994;8.820;2023-08-31T01:29:21;2.60;;;2.40;;
7383;SDS011;3733;47.994;8.820;2023-08-31T01:31:47;4.00;;;2.20;;
7383;SDS011;3733;47.994;8.820;2023-08-31T01:34:13;3.30;;;2.53;;
7383;SDS011;3733;47.994;8.820;2023-08-31T01:36:41;2.93;;;2.63;;
7383;SDS011;3733;47.994;8.820;2023-08-31T01:39:20;5.00;;;2.93;;
7383;SDS011;3733;47.994;8.820;2023-08-31T01:42:00;10.83;;;2.67;;
7383;SDS011;3733;47.994;8.820;2023-08-31T01:44:30;2.30;;;1.90;;
7383;SDS011;3733;47.994;8.820;2023-08-31T01:47:02;2.80;;;2.50;;
7383;SDS011;3733;47.994;8.820;2023-08-31T01:49:35;2.50;;;2.30;;
7383;SDS011;3733;47.994;8.820;2023-08-31T01:52:05;3.30;;;2.20;;
7383;SDS011;3733;47.994;8.820;2023-08-31T01:54:31;4.03;;;2.60;;
7383;SDS011;3733;47.994;8.820;2023-08-31T01:56:57;6.20;;;2.90;;
7383;SDS011;3733;47.994;8.820;2023-08-31T01:59:22;2.70;;;2.50;;
7383;SDS011;3733;47.994;8.820;2023-08-31T02:01:48;3.60;;;2.90;;
7383;SDS011;3733;47.994;8.820;2023-08-31T02:04:14;7.13;;;2.90;;
7383;SDS011;3733;47.994;8.820;2023-08-31T02:06:39;4.90;;;3.90;;
7383;SDS011;3733;47.994;8.820;2023-08-31T02:09:05;6.30;;;3.27;;
7383;SDS011;3733;47.994;8.820;2023-08-31T02:11:31;4.53;;;2.97;;
7383;SDS011;3733;47.994;8.820;2023-08-31T02:14:00;4.87;;;3.40;;
7383;SDS011;3733;47.994;8.820;2023-08-31T02:16:25;11.83;;;3.67;;
7383;SDS011;3733;47.994;8.820;2023-08-31T02:18:51;5.83;;;3.63;;
7383;SDS011;3733;47.994;8.820;2023-08-31T02:21:16;4.20;;;3.43;;
7383;SDS011;3733;47.994;8.820;2023-08-31T02:23:42;5.37;;;2.63;;
7383;SDS011;3733;47.994;8.820;2023-08-31T02:26:08;4.40;;;2.80;;
7383;SDS011;3733;47.994;8.820;2023-08-31T02:28:33;4.83;;;3.33;;
7383;SDS011;3733;47.994;8.820;2023-08-31T02:31:00;4.80;;;3.00;;
7383;SDS011;3733;47.994;8.820;2023-08-31T02:33:27;4.43;;;2.90;;
7383;SDS011;3733;47.994;8.820;2023-08-31T02:35:56;3.40;;;2.83;;
7383;SDS011;3733;47.994;8.820;2023-08-31T02:38:21;3.33;;;2.67;;
7383;SDS011;3733;47.994;8.820;2023-08-31T02:40:48;3.53;;;2.53;;
7383;SDS011;3733;47.994;8.820;2023-08-31T02:43:14;3.37;;;2.73;;
7383;SDS011;3733;47.994;8.820;2023-08-31T02:45:40;3.60;;;2.93;;
7383;SDS011;3733;47.994;8.820;2023-08-31T02:48:09;4.17;;;2.30;;
7383;SDS011;3733;47.994;8.820;2023-08-31T02:50:35;3.63;;;2.53;;
7383;SDS011;3733;47.994;8.820;2023-08-31T02:53:01;3.13;;;2.63;;
7383;SDS011;3733;47.994;8.820;2023-08-31T02:55:27;3.73;;;2.83;;
7383;SDS011;3733;47.994;8.820;2023-08-31T02:57:53;3.63;;;3.33;;
7383;SDS011;3733;47.994;8.820;2023-08-31T03:00:19;6.10;;;3.07;;
7383;SDS011;3733;47.994;8.820;2023-08-31T03:02:47;4.70;;;2.90;;
7383;SDS011;3733;47.994;8.820;2023-08-31T03:05:13;6.60;;;2.70;;
7383;SDS011;3733;47.994;8.820;2023-08-31T03:07:38;4.43;;;3.90;;
7383;SDS011;3733;47.994;8.820;2023-08-31T03:10:04;4.00;;;2.90;;
7383;SDS011;3733;47.994;8.820;2023-08-31T03:12:30;3.30;;;2.73;;
7383;SDS011;3733;47.994;8.820;2023-08-31T03:14:56;2.97;;;2.60;;
7383;SDS011;3733;47.994;8.820;2023-08-31T03:17:22;3.67;;;2.77;;
7383;SDS011;3733;47.994;8.820;2023-08-31T03:19:47;3.83;;;2.50;;
7383;SDS011;3733;47.994;8.820;2023-08-31T03:22:14;4.50;;;2.97;;
7383;SDS011;3733;47.994;8.820;2023-08-31T03:24:39;3.17;;;2.77;;
7383;SDS011;3733;47.994;8.820;2023-08-31T03:27:05;3.40;;;2.80;;
7383;SDS011;3733;47.994;8.820;2023-08-31T03:29:30;4.80;;;3.50;;
7383;SDS011;3733;47.994;8.820;2023-08-31T03:31:57;4.03;;;2.73;;
7383;SDS011;3733;47.994;8.820;2023-08-31T03:34:28;3.33;;;2.73;;
7383;SDS011;3733;47.994;8.820;2023-08-31T03:36:57;5.50;;;2.63;;
7383;SDS011;3733;47.994;8.820;2023-08-31T03:39:24;3.50;;;2.50;;
7383;SDS011;3733;47.994;8.820;2023-08-31T03:41:50;4.70;;;3.07;;
7383;SDS011;3733;47.994;8.820;2023-08-31T03:44:15;4.93;;;2.77;;
7383;SDS011;3733;47.994;8.820;2023-08-31T03:46:42;3.20;;;2.50;;
7383;SDS011;3733;47.994;8.820;2023-08-31T03:49:07;4.30;;;3.10;;
7383;SDS011;3733;47.994;8.820;2023-08-31T03:51:33;4.90;;;3.13;;
7383;SDS011;3733;47.994;8.820;2023-08-31T03:53:59;3.20;;;2.70;;
7383;SDS011;3733;47.994;8.820;2023-08-31T03:56:25;3.73;;;2.73;;
7383;SDS011;3733;47.994;8.820;2023-08-31T03:58:51;5.20;;;3.47;;
7383;SDS011;3733;47.994;8.820;2023-08-31T04:01:17;6.27;;;3.20;;
7383;SDS011;3733;47.994;8.820;2023-08-31T04:03:43;4.20;;;2.90;;
7383;SDS011;3733;47.994;8.820;2023-08-31T04:06:08;4.30;;;2.93;;
7383;SDS011;3733;47.994;8.820;2023-08-31T04:08:34;8.73;;;2.90;;
7383;SDS011;3733;47.994;8.820;2023-08-31T04:11:00;5.77;;;2.67;;
7383;SDS011;3733;47.994;8.820;2023-08-31T04:13:25;5.10;;;2.73;;
7383;SDS011;3733;47.994;8.820;2023-08-31T04:15:54;3.20;;;2.77;;
7383;SDS011;3733;47.994;8.820;2023-08-31T04:18:20;6.43;;;3.20;;
7383;SDS011;3733;47.994;8.820;2023-08-31T04:20:50;3.63;;;3.07;;
7383;SDS011;3733;47.994;8.820;2023-08-31T04:23:17;6.73;;;3.33;;
7383;SDS011;3733;47.994;8.820;2023-08-31T04:25:43;3.93;;;2.93;;
7383;SDS011;3733;47.994;8.820;2023-08-31T04:28:10;8.43;;;2.90;;
7383;SDS011;3733;47.994;8.820;2023-08-31T04:30:35;2.97;;;2.70;;
7383;SDS011;3733;47.994;8.820;2023-08-31T04:33:01;3.40;;;3.10;;
7383;SDS011;3733;47.994;8.820;2023-08-31T04:35:29;5.27;;;2.83;;
7383;SDS011;3733;47.994;8.820;2023-08-31T04:37:56;4.83;;;3.20;;
7383;SDS011;3733;47.994;8.820;2023-08-31T04:40:22;4.30;;;2.60;;
7383;SDS011;3733;47.994;8.820;2023-08-31T04:42:47;7.47;;;3.83;;
7383;SDS011;3733;47.994;8.820;2023-08-31T04:45:13;5.43;;;3.47;;
7383;SDS011;3733;47.994;8.820;2023-08-31T04:47:39;5.27;;;3.47;;
7383;SDS011;3733;47.994;8.820;2023-08-31T04:50:05;4.40;;;3.40;;
7383;SDS011;3733;47.994;8.820;2023-08-31T04:52:31;6.57;;;3.70;;
7383;SDS011;3733;47.994;8.820;2023-08-31T04:54:57;8.00;;;3.50;;
7383;SDS011;3733;47.994;8.820;2023-08-31T04:57:23;3.90;;;3.40;;
7383;SDS011;3733;47.994;8.820;2023-08-31T04:59:49;4.70;;;3.27;;
7383;SDS011;3733;47.994;8.820;2023-08-31T05:02:14;3.90;;;3.50;;
7383;SDS011;3733;47.994;8.820;2023-08-31T05:04:40;5.27;;;3.90;;
7383;SDS011;3733;47.994;8.820;2023-08-31T05:07:06;10.20;;;3.63;;
7383;SDS011;3733;47.994;8.820;2023-08-31T05:09:31;3.33;;;3.03;;
7383;SDS011;3733;47.994;8.820;2023-08-31T05:12:00;3.47;;;3.03;;
7383;SDS011;3733;47.994;8.820;2023-08-31T05:14:26;5.13;;;3.13;;
7383;SDS011;3733;47.994;8.820;2023-08-31T05:16:52;4.40;;;3.00;;
7383;SDS011;3733;47.994;8.820;2023-08-31T05:19:18;6.33;;;3.27;;
7383;SDS011;3733;47.994;8.820;2023-08-31T05:21:43;4.00;;;3.33;;
7383;SDS011;3733;47.994;8.820;2023-08-31T05:24:09;3.80;;;3.33;;
7383;SDS011;3733;47.994;8.820;2023-08-31T05:26:35;4.00;;;3.60;;
7383;SDS011;3733;47.994;8.820;2023-08-31T05:29:00;3.80;;;3.37;;
7383;SDS011;3733;47.994;8.820;2023-08-31T05:31:26;6.30;;;3.43;;
7383;SDS011;3733;47.994;8.820;2023-08-31T05:33:51;5.20;;;3.87;;
7383;SDS011;3733;47.994;8.820;2023-08-31T05:36:17;5.00;;;4.00;;
7383;SDS011;3733;47.994;8.820;2023-08-31T05:38:43;6.60;;;3.77;;
7383;SDS011;3733;47.994;8.820;2023-08-31T05:41:08;5.20;;;3.63;;
7383;SDS011;3733;47.994;8.820;2023-08-31T05:43:35;3.90;;;3.50;;
7383;SDS011;3733;47.994;8.820;2023-08-31T05:46:01;6.93;;;3.60;;
7383;SDS011;3733;47.994;8.820;2023-08-31T05:48:27;6.07;;;4.17;;
7383;SDS011;3733;47.994;8.820;2023-08-31T05:50:54;5.13;;;3.70;;
7383;SDS011;3733;47.994;8.820;2023-08-31T05:53:20;6.63;;;3.50;;
7383;SDS011;3733;47.994;8.820;2023-08-31T05:55:46;4.80;;;3.80;;
7383;SDS011;3733;47.994;8.820;2023-08-31T05:58:12;4.30;;;3.87;;
7383;SDS011;3733;47.994;8.820;2023-08-31T06:00:37;8.80;;;4.03;;
7383;SDS011;3733;47.994;8.820;2023-08-31T06:03:03;5.33;;;4.03;;
7383;SDS011;3733;47.994;8.820;2023-08-31T06:05:30;6.53;;;4.00;;
7383;SDS011;3733;47.994;8.820;2023-08-31T06:07:57;4.27;;;3.90;;
7383;SDS011;3733;47.994;8.820;2023-08-31T06:10:23;5.23;;;4.60;;
7383;SDS011;3733;47.994;8.820;2023-08-31T06:12:49;5.20;;;3.90;;
7383;SDS011;3733;47.994;8.820;2023-08-31T06:15:15;5.10;;;4.07;;
7383;SDS011;3733;47.994;8.820;2023-08-31T06:17:42;4.63;;;3.90;;
7383;SDS011;3733;47.994;8.820;2023-08-31T06:20:08;3.70;;;3.40;;
7383;SDS011;3733;47.994;8.820;2023-08-31T06:22:34;8.57;;;3.93;;
7383;SDS011;3733;47.994;8.820;2023-08-31T06:25:00;4.00;;;3.50;;
7383;SDS011;3733;47.994;8.820;2023-08-31T06:27:26;4.30;;;3.90;;
7383;SDS011;3733;47.994;8.820;2023-08-31T06:29:52;5.00;;;4.17;;
7383;SDS011;3733;47.994;8.820;2023-08-31T06:32:17;6.30;;;4.00;;
7383;SDS011;3733;47.994;8.820;2023-08-31T06:34:44;6.10;;;4.10;;
7383;SDS011;3733;47.994;8.820;2023-08-31T06:37:10;5.63;;;3.57;;
7383;SDS011;3733;47.994;8.820;2023-08-31T06:39:35;5.23;;;3.60;;
7383;SDS011;3733;47.994;8.820;2023-08-31T06:42:01;5.00;;;3.93;;
7383;SDS011;3733;47.994;8.820;2023-08-31T06:44:28;6.47;;;4.13;;
7383;SDS011;3733;47.994;8.820;2023-08-31T06:46:55;4.47;;;3.80;;
7383;SDS011;3733;47.994;8.820;2023-08-31T06:49:21;8.50;;;3.93;;
7383;SDS011;3733;47.994;8.820;2023-08-31T06:51:47;8.50;;;4.63;;
7383;SDS011;3733;47.994;8.820;2023-08-31T06:54:13;8.53;;;4.23;;
7383;SDS011;3733;47.994;8.820;2023-08-31T06:56:38;10.87;;;4.10;;
7383;SDS011;3733;47.994;8.820;2023-08-31T06:59:04;6.63;;;3.63;;
7383;SDS011;3733;47.994;8.820;2023-08-31T07:01:30;7.30;;;3.50;;
7383;SDS011;3733;47.994;8.820;2023-08-31T07:03:58;4.57;;;4.10;;
7383;SDS011;3733;47.994;8.820;2023-08-31T07:06:23;4.80;;;4.07;;
7383;SDS011;3733;47.994;8.820;2023-08-31T07:08:49;5.67;;;3.97;;
7383;SDS011;3733;47.994;8.820;2023-08-31T07:11:15;4.90;;;3.67;;
7383;SDS011;3733;47.994;8.820;2023-08-31T07:13:42;5.90;;;3.70;;
7383;SDS011;3733;47.994;8.820;2023-08-31T07:16:07;4.20;;;3.53;;
7383;SDS011;3733;47.994;8.820;2023-08-31T07:18:33;5.13;;;3.63;;
7383;SDS011;3733;47.994;8.820;2023-08-31T07:20:58;5.50;;;3.57;;
7383;SDS011;3733;47.994;8.820;2023-08-31T07:23:24;4.23;;;3.37;;
7383;SDS011;3733;47.994;8.820;2023-08-31T07:25:50;3.60;;;3.30;;
7383;SDS011;3733;47.994;8.820;2023-08-31T07:28:15;4.43;;;3.30;;
7383;SDS011;3733;47.994;8.820;2023-08-31T07:30:41;6.17;;;3.93;;
7383;SDS011;3733;47.994;8.820;2023-08-31T07:33:07;7.60;;;3.83;;
7383;SDS011;3733;47.994;8.820;2023-08-31T07:35:32;4.03;;;3.40;;
7383;SDS011;3733;47.994;8.820;2023-08-31T07:37:58;3.83;;;3.20;;
7383;SDS011;3733;47.994;8.820;2023-08-31T07:40:24;3.67;;;3.30;;
7383;SDS011;3733;47.994;8.820;2023-08-31T07:42:50;5.73;;;3.30;;
7383;SDS011;3733;47.994;8.820;2023-08-31T07:45:16;7.90;;;3.30;;
7383;SDS011;3733;47.994;8.820;2023-08-31T07:47:42;5.90;;;3.80;;
7383;SDS011;3733;47.994;8.820;2023-08-31T07:50:08;5.30;;;3.33;;
7383;SDS011;3733;47.994;8.820;2023-08-31T07:52:34;7.93;;;3.30;;
7383;SDS011;3733;47.994;8.820;2023-08-31T07:55:00;7.90;;;3.27;;
7383;SDS011;3733;47.994;8.820;2023-08-31T07:57:25;5.63;;;2.97;;
7383;SDS011;3733;47.994;8.820;2023-08-31T07:59:51;4.97;;;2.77;;
7383;SDS011;3733;47.994;8.820;2023-08-31T08:02:17;9.87;;;2.90;;
7383;SDS011;3733;47.994;8.820;2023-08-31T08:04:42;8.10;;;2.70;;
7383;SDS011;3733;47.994;8.820;2023-08-31T08:07:10;3.77;;;2.63;;
7383;SDS011;3733;47.994;8.820;2023-08-31T08:09:36;10.27;;;2.60;;
7383;SDS011;3733;47.994;8.820;2023-08-31T08:12:01;3.87;;;2.60;;
7383;SDS011;3733;47.994;8.820;2023-08-31T08:14:28;6.40;;;2.80;;
7383;SDS011;3733;47.994;8.820;2023-08-31T08:16:53;5.50;;;2.77;;
7383;SDS011;3733;47.994;8.820;2023-08-31T08:19:22;5.63;;;2.40;;
7383;SDS011;3733;47.994;8.820;2023-08-31T08:21:49;5.83;;;2.70;;
7383;SDS011;3733;47.994;8.820;2023-08-31T08:24:15;6.20;;;2.83;;
7383;SDS011;3733;47.994;8.820;2023-08-31T08:26:41;6.93;;;2.70;;
7383;SDS011;3733;47.994;8.820;2023-08-31T08:29:06;5.43;;;2.40;;
7383;SDS011;3733;47.994;8.820;2023-08-31T08:31:32;3.50;;;2.70;;
7383;SDS011;3733;47.994;8.820;2023-08-31T08:33:57;6.17;;;2.23;;
7383;SDS011;3733;47.994;8.820;2023-08-31T08:36:23;8.13;;;2.40;;
7383;SDS011;3733;47.994;8.820;2023-08-31T08:38:49;5.67;;;2.40;;
7383;SDS011;3733;47.994;8.820;2023-08-31T08:41:14;10.40;;;2.40;;
7383;SDS011;3733;47.994;8.820;2023-08-31T08:43:44;13.00;;;2.77;;
7383;SDS011;3733;47.994;8.820;2023-08-31T08:46:12;4.90;;;2.97;;
7383;SDS011;3733;47.994;8.820;2023-08-31T08:48:38;2.30;;;2.03;;
7383;SDS011;3733;47.994;8.820;2023-08-31T08:51:05;7.20;;;2.40;;
7383;SDS011;3733;47.994;8.820;2023-08-31T08:53:32;5.17;;;2.50;;
7383;SDS011;3733;47.994;8.820;2023-08-31T08:55:58;4.17;;;2.73;;
7383;SDS011;3733;47.994;8.820;2023-08-31T08:58:24;2.60;;;2.00;;
7383;SDS011;3733;47.994;8.820;2023-08-31T09:00:49;3.20;;;2.60;;
7383;SDS011;3733;47.994;8.820;2023-08-31T09:03:16;6.30;;;3.00;;
7383;SDS011;3733;47.994;8.820;2023-08-31T09:05:42;6.47;;;2.60;;
7383;SDS011;3733;47.994;8.820;2023-08-31T09:08:09;4.40;;;2.30;;
7383;SDS011;3733;47.994;8.820;2023-08-31T09:10:37;6.30;;;2.50;;
7383;SDS011;3733;47.994;8.820;2023-08-31T09:13:05;6.03;;;2.20;;
7383;SDS011;3733;47.994;8.820;2023-08-31T09:15:51;6.33;;;2.50;;
7383;SDS011;3733;47.994;8.820;2023-08-31T09:18:22;4.10;;;2.47;;
7383;SDS011;3733;47.994;8.820;2023-08-31T09:20:51;5.80;;;3.07;;
7383;SDS011;3733;47.994;8.820;2023-08-31T09:23:17;6.20;;;2.37;;
7383;SDS011;3733;47.994;8.820;2023-08-31T09:25:44;3.43;;;2.33;;
7383;SDS011;3733;47.994;8.820;2023-08-31T09:28:14;4.87;;;2.70;;
7383;SDS011;3733;47.994;8.820;2023-08-31T09:30:45;4.90;;;2.30;;
7383;SDS011;3733;47.994;8.820;2023-08-31T09:33:13;7.80;;;2.87;;
7383;SDS011;3733;47.994;8.820;2023-08-31T09:35:50;4.10;;;2.53;;
7383;SDS011;3733;47.994;8.820;2023-08-31T09:38:24;4.50;;;2.20;;
7383;SDS011;3733;47.994;8.820;2023-08-31T09:40:50;4.43;;;2.10;;
7383;SDS011;3733;47.994;8.820;2023-08-31T09:43:23;4.83;;;2.17;;
7383;SDS011;3733;47.994;8.820;2023-08-31T09:45:49;4.70;;;2.33;;
7383;SDS011;3733;47.994;8.820;2023-08-31T09:48:17;10.63;;;2.50;;
7383;SDS011;3733;47.994;8.820;2023-08-31T09:50:44;8.50;;;2.60;;
7383;SDS011;3733;47.994;8.820;2023-08-31T09:53:13;3.50;;;2.30;;
7383;SDS011;3733;47.994;8.820;2023-08-31T09:55:41;6.70;;;2.80;;
7383;SDS011;3733;47.994;8.820;2023-08-31T09:58:08;5.90;;;2.37;;
7383;SDS011;3733;47.994;8.820;2023-08-31T10:00:37;5.23;;;2.23;;
7383;SDS011;3733;47.994;8.820;2023-08-31T10:03:04;5.97;;;2.70;;
7383;SDS011;3733;47.994;8.820;2023-08-31T10:05:30;4.80;;;2.20;;
7383;SDS011;3733;47.994;8.820;2023-08-31T10:07:58;5.27;;;2.30;;
7383;SDS011;3733;47.994;8.820;2023-08-31T10:10:24;6.80;;;2.17;;
7383;SDS011;3733;47.994;8.820;2023-08-31T10:12:52;5.03;;;2.57;;
7383;SDS011;3733;47.994;8.820;2023-08-31T10:15:19;4.17;;;1.90;;
7383;SDS011;3733;47.994;8.820;2023-08-31T10:17:45;3.10;;;2.23;;
7383;SDS011;3733;47.994;8.820;2023-08-31T10:20:11;3.33;;;1.97;;
7383;SDS011;3733;47.994;8.820;2023-08-31T10:22:39;4.47;;;2.40;;
7383;SDS011;3733;47.994;8.820;2023-08-31T10:25:05;3.13;;;1.87;;
7383;SDS011;3733;47.994;8.820;2023-08-31T10:27:39;3.43;;;2.30;;
7383;SDS011;3733;47.994;8.820;2023-08-31T10:32:46;6.60;;;2.57;;
7383;SDS011;3733;47.994;8.820;2023-08-31T10:35:48;6.37;;;2.13;;
7383;SDS011;3733;47.994;8.820;2023-08-31T10:38:16;3.77;;;2.23;;
7383;SDS011;3733;47.994;8.820;2023-08-31T10:46:32;7.50;;;2.40;;
7383;SDS011;3733;47.994;8.820;2023-08-31T10:51:40;8.03;;;2.40;;
7383;SDS011;3733;47.994;8.820;2023-08-31T10:57:26;4.80;;;2.20;;
7383;SDS011;3733;47.994;8.820;2023-08-31T10:59:49;3.40;;;2.03;;
7383;SDS011;3733;47.994;8.820;2023-08-31T11:02:37;5.00;;;2.10;;
7383;SDS011;3733;47.994;8.820;2023-08-31T11:05:10;6.13;;;2.00;;
7383;SDS011;3733;47.994;8.820;2023-08-31T11:07:40;6.00;;;2.70;;
7383;SDS011;3733;47.994;8.820;2023-08-31T11:10:19;4.80;;;2.33;;
7383;SDS011;3733;47.994;8.820;2023-08-31T11:12:46;7.13;;;2.20;;
7383;SDS011;3733;47.994;8.820;2023-08-31T11:15:14;5.50;;;2.47;;
7383;SDS011;3733;47.994;8.820;2023-08-31T11:17:41;6.03;;;2.60;;
7383;SDS011;3733;47.994;8.820;2023-08-31T11:20:08;5.17;;;2.30;;
7383;SDS011;3733;47.994;8.820;2023-08-31T11:22:41;4.20;;;2.43;;
7383;SDS011;3733;47.994;8.820;2023-08-31T11:25:08;3.93;;;1.83;;
7383;SDS011;3733;47.994;8.820;2023-08-31T11:27:36;6.33;;;2.50;;
7383;SDS011;3733;47.994;8.820;2023-08-31T11:30:02;5.67;;;2.50;;
7383;SDS011;3733;47.994;8.820;2023-08-31T11:32:29;4.30;;;2.33;;
7383;SDS011;3733;47.994;8.820;2023-08-31T11:34:54;10.07;;;2.20;;
7383;SDS011;3733;47.994;8.820;2023-08-31T11:37:20;4.80;;;2.40;;
7383;SDS011;3733;47.994;8.820;2023-08-31T11:39:49;10.77;;;3.13;;
7383;SDS011;3733;47.994;8.820;2023-08-31T11:42:16;6.60;;;2.37;;
7383;SDS011;3733;47.994;8.820;2023-08-31T11:44:43;8.20;;;2.63;;
7383;SDS011;3733;47.994;8.820;2023-08-31T11:47:11;5.87;;;2.50;;
7383;SDS011;3733;47.994;8.820;2023-08-31T11:49:38;4.20;;;2.30;;
7383;SDS011;3733;47.994;8.820;2023-08-31T11:52:05;4.37;;;2.13;;
7383;SDS011;3733;47.994;8.820;2023-08-31T11:54:31;5.87;;;2.33;;
7383;SDS011;3733;47.994;8.820;2023-08-31T11:56:57;6.70;;;2.43;;
7383;SDS011;3733;47.994;8.820;2023-08-31T11:59:22;6.10;;;2.50;;
7383;SDS011;3733;47.994;8.820;2023-08-31T12:01:49;7.40;;;1.90;;
7383;SDS011;3733;47.994;8.820;2023-08-31T12:04:16;2.80;;;1.80;;
7383;SDS011;3733;47.994;8.820;2023-08-31T12:06:48;5.60;;;2.10;;
7383;SDS011;3733;47.994;8.820;2023-08-31T12:09:15;5.57;;;2.50;;
7383;SDS011;3733;47.994;8.820;2023-08-31T12:11:41;10.30;;;2.83;;
7383;SDS011;3733;47.994;8.820;2023-08-31T12:14:20;4.50;;;2.10;;
7383;SDS011;3733;47.994;8.820;2023-08-31T12:16:47;3.90;;;1.90;;
7383;SDS011;3733;47.994;8.820;2023-08-31T12:19:13;6.33;;;2.20;;
7383;SDS011;3733;47.994;8.820;2023-08-31T12:21:39;3.30;;;2.23;;
7383;SDS011;3733;47.994;8.820;2023-08-31T12:24:07;3.63;;;1.80;;
7383;SDS011;3733;47.994;8.820;2023-08-31T12:26:32;4.80;;;2.20;;
7383;SDS011;3733;47.994;8.820;2023-08-31T12:28:59;5.17;;;2.20;;
7383;SDS011;3733;47.994;8.820;2023-08-31T12:31:24;4.30;;;2.37;;
7383;SDS011;3733;47.994;8.820;2023-08-31T12:33:50;8.40;;;2.93;;
7383;SDS011;3733;47.994;8.820;2023-08-31T12:36:16;5.97;;;2.40;;
7383;SDS011;3733;47.994;8.820;2023-08-31T12:38:41;3.07;;;2.10;;
7383;SDS011;3733;47.994;8.820;2023-08-31T12:41:07;3.30;;;1.83;;
7383;SDS011;3733;47.994;8.820;2023-08-31T12:43:33;10.17;;;2.20;;
7383;SDS011;3733;47.994;8.820;2023-08-31T12:45:59;5.20;;;1.90;;
7383;SDS011;3733;47.994;8.820;2023-08-31T12:48:25;3.97;;;2.20;;
7383;SDS011;3733;47.994;8.820;2023-08-31T12:50:51;6.47;;;3.17;;
7383;SDS011;3733;47.994;8.820;2023-08-31T12:53:20;4.67;;;2.37;;
7383;SDS011;3733;47.994;8.820;2023-08-31T12:55:47;7.40;;;2.03;;
7383;SDS011;3733;47.994;8.820;2023-08-31T12:58:12;4.23;;;2.40;;
7383;SDS011;3733;47.994;8.820;2023-08-31T13:00:38;5.03;;;2.30;;
7383;SDS011;3733;47.994;8.820;2023-08-31T13:03:04;7.37;;;2.90;;
7383;SDS011;3733;47.994;8.820;2023-08-31T13:05:31;6.53;;;3.00;;
7383;SDS011;3733;47.994;8.820;2023-08-31T13:07:57;8.93;;;2.93;;
7383;SDS011;3733;47.994;8.820;2023-08-31T13:10:23;5.50;;;3.10;;
7383;SDS011;3733;47.994;8.820;2023-08-31T13:12:49;7.97;;;2.93;;
7383;SDS011;3733;47.994;8.820;2023-08-31T13:15:14;8.50;;;3.33;;
7383;SDS011;3733;47.994;8.820;2023-08-31T13:17:40;5.33;;;2.43;;
7383;SDS011;3733;47.994;8.820;2023-08-31T13:20:06;4.87;;;2.50;;
7383;SDS011;3733;47.994;8.820;2023-08-31T13:22:33;6.30;;;2.50;;
7383;SDS011;3733;47.994;8.820;2023-08-31T13:24:59;7.40;;;2.20;;
7383;SDS011;3733;47.994;8.820;2023-08-31T13:27:24;10.10;;;2.80;;
7383;SDS011;3733;47.994;8.820;2023-08-31T13:29:50;6.80;;;2.30;;
7383;SDS011;3733;47.994;8.820;2023-08-31T13:32:16;7.10;;;2.80;;
7383;SDS011;3733;47.994;8.820;2023-08-31T13:34:42;5.63;;;2.27;;
7383;SDS011;3733;47.994;8.820;2023-08-31T13:37:07;4.57;;;2.43;;
7383;SDS011;3733;47.994;8.820;2023-08-31T13:39:34;8.40;;;2.77;;
7383;SDS011;3733;47.994;8.820;2023-08-31T13:42:05;5.13;;;2.10;;
7383;SDS011;3733;47.994;8.820;2023-08-31T13:44:31;7.63;;;2.87;;
7383;SDS011;3733;47.994;8.820;2023-08-31T13:46:57;5.53;;;2.20;;
7383;SDS011;3733;47.994;8.820;2023-08-31T13:49:23;4.73;;;2.13;;
7383;SDS011;3733;47.994;8.820;2023-08-31T13:51:48;4.93;;;2.30;;
7383;SDS011;3733;47.994;8.820;2023-08-31T13:54:14;10.47;;;2.77;;
7383;SDS011;3733;47.994;8.820;2023-08-31T13:56:40;5.30;;;2.57;;
7383;SDS011;3733;47.994;8.820;2023-08-31T13:59:05;3.67;;;2.00;;
7383;SDS011;3733;47.994;8.820;2023-08-31T14:01:31;4.60;;;2.33;;
7383;SDS011;3733;47.994;8.820;2023-08-31T14:03:56;5.93;;;2.43;;
7383;SDS011;3733;47.994;8.820;2023-08-31T14:06:22;4.43;;;1.97;;
7383;SDS011;3733;47.994;8.820;2023-08-31T14:08:48;5.50;;;2.60;;
7383;SDS011;3733;47.994;8.820;2023-08-31T14:11:13;5.80;;;2.80;;
7383;SDS011;3733;47.994;8.820;2023-08-31T14:13:39;3.00;;;2.10;;
7383;SDS011;3733;47.994;8.820;2023-08-31T14:16:05;4.23;;;2.27;;
7383;SDS011;3733;47.994;8.820;2023-08-31T14:18:32;5.07;;;2.77;;
7383;SDS011;3733;47.994;8.820;2023-08-31T14:20:58;5.67;;;2.17;;
7383;SDS011;3733;47.994;8.820;2023-08-31T14:23:25;3.47;;;1.93;;
7383;SDS011;3733;47.994;8.820;2023-08-31T14:25:50;11.50;;;4.13;;
7383;SDS011;3733;47.994;8.820;2023-08-31T14:28:16;5.60;;;2.33;;
7383;SDS011;3733;47.994;8.820;2023-08-31T14:30:41;3.20;;;2.30;;
7383;SDS011;3733;47.994;8.820;2023-08-31T14:33:07;6.80;;;2.77;;
7383;SDS011;3733;47.994;8.820;2023-08-31T14:35:36;6.17;;;2.80;;
7383;SDS011;3733;47.994;8.820;2023-08-31T14:38:02;4.30;;;2.40;;
7383;SDS011;3733;47.994;8.820;2023-08-31T14:40:28;2.60;;;2.40;;
7383;SDS011;3733;47.994;8.820;2023-08-31T14:42:54;6.27;;;2.50;;
7383;SDS011;3733;47.994;8.820;2023-08-31T14:45:19;4.10;;;2.17;;
7383;SDS011;3733;47.994;8.820;2023-08-31T14:47:45;3.90;;;1.97;;
7383;SDS011;3733;47.994;8.820;2023-08-31T14:50:11;4.77;;;2.10;;
7383;SDS011;3733;47.994;8.820;2023-08-31T14:52:36;5.53;;;2.73;;
7383;SDS011;3733;47.994;8.820;2023-08-31T14:55:02;9.50;;;2.73;;
7383;SDS011;3733;47.994;8.820;2023-08-31T14:57:30;7.53;;;2.50;;
7383;SDS011;3733;47.994;8.820;2023-08-31T14:59:55;4.27;;;1.90;;
7383;SDS011;3733;47.994;8.820;2023-08-31T15:02:23;6.30;;;2.27;;
7383;SDS011;3733;47.994;8.820;2023-08-31T15:04:52;3.67;;;2.10;;
7383;SDS011;3733;47.994;8.820;2023-08-31T15:07:17;9.50;;;2.33;;
7383;SDS011;3733;47.994;8.820;2023-08-31T15:09:43;5.10;;;2.70;;
7383;SDS011;3733;47.994;8.820;2023-08-31T15:12:09;3.40;;;2.23;;
7383;SDS011;3733;47.994;8.820;2023-08-31T15:14:36;8.50;;;2.63;;
7383;SDS011;3733;47.994;8.820;2023-08-31T15:17:03;9.37;;;2.70;;
7383;SDS011;3733;47.994;8.820;2023-08-31T15:19:29;6.70;;;2.97;;
7383;SDS011;3733;47.994;8.820;2023-08-31T15:21:57;4.23;;;2.30;;
7383;SDS011;3733;47.994;8.820;2023-08-31T15:24:23;6.17;;;2.93;;
7383;SDS011;3733;47.994;8.820;2023-08-31T15:26:48;8.90;;;3.33;;
7383;SDS011;3733;47.994;8.820;2023-08-31T15:29:14;6.67;;;3.40;;
7383;SDS011;3733;47.994;8.820;2023-08-31T15:31:39;4.20;;;2.20;;
7383;SDS011;3733;47.994;8.820;2023-08-31T15:34:05;7.70;;;3.43;;
7383;SDS011;3733;47.994;8.820;2023-08-31T15:36:31;9.23;;;3.70;;
7383;SDS011;3733;47.994;8.820;2023-08-31T15:38:56;6.20;;;2.40;;
7383;SDS011;3733;47.994;8.820;2023-08-31T15:41:22;7.73;;;3.60;;